CPX783 Details

Departure: Noi Bai International Airport (VVNB)
Arrival: Incheon International Airport (RKSI)
Route: BUNBO1A NAKHA R474 LON R474 GYA B330 POU A599 PUD A593 AKARA A326 IKADI A326 MUDAL A591 AGAVO G597 GONAV GONAV2M


Current Weather Information
VVNB 260030Z 06004KT 1600 -DZ BR SCT003 BKN009 18/18 Q1018 TEMPO 3000 -DZ BR
RKSI 260030Z 16003KT 5000 HZ FEW030 SCT180 10/04 Q1019 NOSIG